Crab Orchard Estates, Illinois
Current Conditions -  °F | °C
As of 12:52 AM on Sunday 23 Nov 2014 (Local Time) from KMDH Reporting Station
Clear Clear  
Wind Chill: 52°   Ceiling: Unl
Heat Index: 52°   Visibility: 10mi
Dew Point: 39°   Wind: 10mph
Humidity: 61%   Direction: 190°S
Pressure: 29.91"   Gusts: NA
Location:  37.7248°N, 89.197°W
Report Text: KMDH 230652Z AUTO 19009KT 10SM CLR 11/04 A2991 RMK AO2 SLP128 T01110039
Loading
Personal Weather Stations






























Interactive Weather Map New forecast layout! Learn more

10-Day Weather Forecast

Advertisements
Track Severe Weather on mobile